createdAt,value
2018-02-07T00:01:11.359Z,-1.20
2018-02-07T00:03:37.497Z,-1.20
2018-02-07T00:06:05.196Z,-1.20
2018-02-07T00:08:31.327Z,-1.20
2018-02-07T00:10:57.521Z,-1.20
2018-02-07T00:13:23.741Z,-1.40
2018-02-07T00:15:50.218Z,-1.50
2018-02-07T00:18:17.212Z,-1.40
2018-02-07T00:20:43.531Z,-1.40
2018-02-07T00:23:10.357Z,-1.40
2018-02-07T00:25:36.430Z,-1.40
2018-02-07T00:28:02.493Z,-1.30
2018-02-07T00:30:29.774Z,-1.30
2018-02-07T00:32:55.815Z,-1.30
2018-02-07T00:35:21.941Z,-1.30
2018-02-07T00:37:48.370Z,-1.40
2018-02-07T00:40:14.792Z,-1.50
2018-02-07T00:42:41.924Z,-1.70
2018-02-07T00:45:08.254Z,-1.80
2018-02-07T00:47:35.424Z,-1.80
2018-02-07T00:50:01.484Z,-1.80
2018-02-07T00:52:28.301Z,-1.80
2018-02-07T00:54:54.348Z,-1.80
2018-02-07T00:57:21.583Z,-1.70
2018-02-07T00:59:48.176Z,-1.60
2018-02-07T01:02:14.236Z,-1.60
2018-02-07T01:04:40.665Z,-1.50
2018-02-07T01:07:06.697Z,-1.50
2018-02-07T01:09:32.741Z,-1.50
2018-02-07T01:11:59.561Z,-1.60
2018-02-07T01:14:25.606Z,-1.60
2018-02-07T01:16:52.415Z,-1.60
2018-02-07T01:19:18.466Z,-1.60
2018-02-07T01:21:45.167Z,-1.70
2018-02-07T01:24:11.218Z,-1.70
2018-02-07T01:26:37.283Z,-1.80
2018-02-07T01:29:03.358Z,-1.80
2018-02-07T01:31:29.996Z,-1.90
2018-02-07T01:33:56.053Z,-1.90
2018-02-07T01:36:22.849Z,-1.90
2018-02-07T01:38:48.938Z,-1.90
2018-02-07T01:41:15.031Z,-1.80
2018-02-07T01:43:41.729Z,-1.80
2018-02-07T01:46:07.757Z,-1.90
2018-02-07T01:48:33.814Z,-2.00
2018-02-07T01:51:00.092Z,-2.20
2018-02-07T01:53:26.949Z,-2.10
2018-02-07T01:55:52.981Z,-2.10
2018-02-07T01:58:19.036Z,-2.00
2018-02-07T02:00:46.215Z,-2.00
2018-02-07T02:03:12.271Z,-2.00
2018-02-07T02:05:38.476Z,-1.90
2018-02-07T02:08:05.743Z,-1.70
2018-02-07T02:10:31.789Z,-1.70
2018-02-07T02:12:58.183Z,-1.60
2018-02-07T02:15:24.242Z,-1.70
2018-02-07T02:17:50.862Z,-1.80
2018-02-07T02:20:16.909Z,-1.80
2018-02-07T02:22:44.000Z,-1.80
2018-02-07T02:25:11.040Z,-1.80
2018-02-07T02:27:38.408Z,-1.90
2018-02-07T02:30:05.133Z,-1.90
2018-02-07T02:32:32.501Z,-1.90
2018-02-07T02:34:58.870Z,-1.90
2018-02-07T02:37:26.504Z,-1.80
2018-02-07T02:39:52.591Z,-1.90
2018-02-07T02:42:19.373Z,-1.90
2018-02-07T02:44:45.406Z,-1.90
2018-02-07T02:47:11.546Z,-1.80
2018-02-07T02:49:38.369Z,-1.80
2018-02-07T02:52:04.435Z,-1.70
2018-02-07T02:54:30.489Z,-1.70
2018-02-07T02:56:57.832Z,-1.70
2018-02-07T02:59:25.313Z,-1.70
2018-02-07T03:01:52.042Z,-1.70
2018-02-07T03:04:18.434Z,-1.70
2018-02-07T03:06:46.334Z,-1.70
2018-02-07T03:09:13.126Z,-1.90
2018-02-07T03:11:39.225Z,-1.90
2018-02-07T03:14:05.881Z,-1.90
2018-02-07T03:16:32.038Z,-2.10
2018-02-07T03:18:58.105Z,-2.20
2018-02-07T03:21:24.169Z,-2.20
2018-02-07T03:23:51.307Z,-2.10
2018-02-07T03:26:17.389Z,-2.00
2018-02-07T03:28:44.200Z,-2.10
2018-02-07T03:31:10.251Z,-2.10
2018-02-07T03:33:37.135Z,-2.10
2018-02-07T03:36:03.940Z,-2.10
2018-02-07T03:38:29.997Z,-2.10
2018-02-07T03:40:56.069Z,-2.10
2018-02-07T03:43:23.660Z,-2.10
2018-02-07T03:45:49.710Z,-2.10
2018-02-07T03:48:15.788Z,-2.00
2018-02-07T03:50:43.520Z,-2.00
2018-02-07T03:53:09.596Z,-2.00
2018-02-07T03:55:35.696Z,-2.00
2018-02-07T03:58:02.506Z,-2.10
2018-02-07T04:00:29.928Z,-2.00
2018-02-07T04:02:57.610Z,-2.00
2018-02-07T04:05:24.785Z,-2.00
2018-02-07T04:07:50.865Z,-2.00
2018-02-07T04:10:16.925Z,-2.00
2018-02-07T04:12:43.121Z,-1.90
2018-02-07T04:15:09.714Z,-1.90
2018-02-07T04:17:36.655Z,-1.90
2018-02-07T04:20:03.558Z,-1.90
2018-02-07T04:22:29.870Z,-1.90
2018-02-07T04:24:55.975Z,-1.90
2018-02-07T04:27:22.040Z,-1.90
2018-02-07T04:29:48.112Z,-1.90
2018-02-07T04:32:14.893Z,-1.90
2018-02-07T04:34:41.221Z,-1.90
2018-02-07T04:37:07.269Z,-1.90
2018-02-07T04:39:33.910Z,-1.90
2018-02-07T04:41:59.984Z,-2.00
2018-02-07T04:44:26.160Z,-1.90
2018-02-07T04:46:52.238Z,-1.80
2018-02-07T04:49:18.295Z,-1.80
2018-02-07T04:51:45.370Z,-1.80
2018-02-07T04:54:11.434Z,-1.80
2018-02-07T04:56:38.602Z,-1.80
2018-02-07T04:59:05.070Z,-1.90
2018-02-07T05:01:31.146Z,-1.80
2018-02-07T05:03:57.198Z,-1.70
2018-02-07T05:06:23.550Z,-1.80
2018-02-07T05:08:49.605Z,-1.90
2018-02-07T05:11:15.686Z,-1.80
2018-02-07T05:13:41.802Z,-1.80
2018-02-07T05:16:07.860Z,-1.80
2018-02-07T05:18:34.663Z,-1.90
2018-02-07T05:21:00.721Z,-1.90
2018-02-07T05:23:28.129Z,-2.00
2018-02-07T05:25:54.178Z,-2.00
2018-02-07T05:28:20.266Z,-1.90
2018-02-07T05:30:46.330Z,-2.00
2018-02-07T05:33:12.401Z,-2.10
2018-02-07T05:35:38.470Z,-2.10
2018-02-07T05:38:05.121Z,-2.10
2018-02-07T05:40:31.318Z,-2.20
2018-02-07T05:42:57.400Z,-2.10
2018-02-07T05:45:24.620Z,-1.90
2018-02-07T05:47:51.778Z,-1.90
2018-02-07T05:50:18.675Z,-1.90
2018-02-07T05:52:44.730Z,-1.90
2018-02-07T05:55:10.793Z,-1.80
2018-02-07T05:57:37.605Z,-1.80
2018-02-07T06:00:03.697Z,-1.80
2018-02-07T06:02:30.261Z,-1.80
2018-02-07T06:04:56.327Z,-1.80
2018-02-07T06:07:22.630Z,-1.80
2018-02-07T06:09:48.813Z,-1.80
2018-02-07T06:12:14.969Z,-1.80
2018-02-07T06:14:41.046Z,-1.80
2018-02-07T06:17:07.128Z,-1.80
2018-02-07T06:19:33.309Z,-1.90
2018-02-07T06:21:59.372Z,-1.90
2018-02-07T06:24:25.517Z,-1.90
2018-02-07T06:26:52.372Z,-2.00
2018-02-07T06:29:19.172Z,-2.00
2018-02-07T06:31:45.559Z,-2.00
2018-02-07T06:34:11.619Z,-1.90
2018-02-07T06:36:37.711Z,-1.90
2018-02-07T06:39:03.796Z,-1.80
2018-02-07T06:41:29.840Z,-1.90
2018-02-07T06:43:57.463Z,-1.80
2018-02-07T06:46:24.373Z,-1.70
2018-02-07T06:48:50.454Z,-1.70
2018-02-07T06:51:17.313Z,-1.70
2018-02-07T06:53:44.117Z,-1.70
2018-02-07T06:56:10.251Z,-1.70
2018-02-07T06:58:37.137Z,-1.80
2018-02-07T07:01:03.212Z,-1.80
2018-02-07T07:03:29.290Z,-1.80
2018-02-07T07:05:55.352Z,-1.80
2018-02-07T07:08:21.469Z,-1.80
2018-02-07T07:10:47.561Z,-1.70
2018-02-07T07:13:13.646Z,-1.70
2018-02-07T07:15:40.533Z,-1.70
2018-02-07T07:18:06.582Z,-1.70
2018-02-07T07:20:33.383Z,-1.60
2018-02-07T07:22:59.434Z,-1.50
2018-02-07T07:25:25.517Z,-1.50
2018-02-07T07:27:52.312Z,-1.50
2018-02-07T07:30:18.383Z,-1.50
2018-02-07T07:32:45.199Z,-1.50
2018-02-07T07:35:11.601Z,-1.50
2018-02-07T07:38:15.687Z,-1.40
2018-02-07T07:40:41.847Z,-1.00
2018-02-07T07:43:07.901Z,-1.30
2018-02-07T07:45:33.977Z,-1.10
2018-02-07T07:48:00.066Z,-1.10
2018-02-07T07:50:26.861Z,-1.00
2018-02-07T07:53:20.296Z,-1.00
2018-02-07T07:55:46.340Z,-1.00
2018-02-07T07:58:12.469Z,-1.00
2018-02-07T08:00:38.497Z,-1.00
2018-02-07T08:03:04.590Z,-0.90
2018-02-07T08:05:30.989Z,-0.90
2018-02-07T08:07:57.058Z,-0.70
2018-02-07T08:10:23.134Z,-0.50
2018-02-07T08:28:06.888Z,23.00
2018-02-07T08:41:52.603Z,21.00
2018-02-07T08:44:19.821Z,15.40
2018-02-07T08:46:46.873Z,13.10
2018-02-07T08:49:14.048Z,13.00
2018-02-07T08:51:40.234Z,11.00
2018-02-07T08:54:06.533Z,9.30
2018-02-07T08:56:32.771Z,7.80
2018-02-07T08:59:00.816Z,5.60
2018-02-07T09:01:27.062Z,5.60
2018-02-07T09:03:54.028Z,4.20
2018-02-07T09:06:20.397Z,4.20
2018-02-07T09:08:47.460Z,3.10
2018-02-07T09:11:13.724Z,3.00
2018-02-07T09:13:39.972Z,2.70
2018-02-07T09:16:06.861Z,2.40
2018-02-07T09:18:33.139Z,2.20
2018-02-07T09:20:59.992Z,2.00
2018-02-07T09:23:27.058Z,1.40
2018-02-07T09:25:54.167Z,1.30
2018-02-07T09:28:20.422Z,1.20
2018-02-07T09:30:47.469Z,1.20
2018-02-07T09:33:14.845Z,0.80
2018-02-07T09:35:42.081Z,0.70
2018-02-07T09:38:08.334Z,0.70
2018-02-07T09:40:35.388Z,0.70
2018-02-07T09:43:02.330Z,0.80
2018-02-07T09:45:28.563Z,0.70
2018-02-07T09:47:55.205Z,0.70
2018-02-07T09:50:22.273Z,0.70
2018-02-07T09:52:50.640Z,0.60
2018-02-07T09:55:16.915Z,0.60
2018-02-07T09:57:43.176Z,0.60
2018-02-07T10:00:09.859Z,0.60
2018-02-07T10:02:37.007Z,0.50
2018-02-07T10:05:05.127Z,0.40
2018-02-07T10:07:32.103Z,0.50
2018-02-07T10:09:58.607Z,0.40
2018-02-07T10:12:24.874Z,0.50
2018-02-07T10:14:52.029Z,0.60
2018-02-07T10:17:18.986Z,0.70
2018-02-07T10:19:45.882Z,0.70
2018-02-07T10:22:13.278Z,0.70
2018-02-07T10:24:40.233Z,0.70
2018-02-07T10:27:06.759Z,0.70
2018-02-07T10:29:33.710Z,0.80
2018-02-07T10:31:59.903Z,0.80
2018-02-07T10:34:27.720Z,1.10
2018-02-07T10:36:54.811Z,1.10
2018-02-07T10:39:21.267Z,1.10
2018-02-07T10:41:49.152Z,1.20
2018-02-07T10:44:15.564Z,1.20
2018-02-07T10:46:42.512Z,1.30
2018-02-07T10:49:09.616Z,1.40
2018-02-07T10:51:36.199Z,1.30
2018-02-07T10:54:03.432Z,1.50
2018-02-07T10:56:29.731Z,1.40
2018-02-07T10:58:56.591Z,1.50
2018-02-07T11:01:24.061Z,1.60
2018-02-07T11:03:51.043Z,1.70
2018-02-07T11:06:17.556Z,1.70
2018-02-07T11:08:45.415Z,1.90
2018-02-07T11:11:12.390Z,1.90
2018-02-07T11:13:39.562Z,1.90
2018-02-07T11:16:06.154Z,1.90
2018-02-07T11:18:32.391Z,2.00
2018-02-07T11:21:00.232Z,2.20
2018-02-07T11:23:28.240Z,2.20
2018-02-07T11:25:54.463Z,2.20
2018-02-07T11:28:20.694Z,2.20
2018-02-07T11:30:47.229Z,2.20
2018-02-07T11:33:14.298Z,2.10
2018-02-07T11:35:40.563Z,2.10
2018-02-07T11:38:07.338Z,2.10
2018-02-07T11:40:33.887Z,1.90
2018-02-07T11:43:01.031Z,1.50
2018-02-07T11:45:28.020Z,1.50
2018-02-07T11:47:54.814Z,1.50
2018-02-07T11:50:21.139Z,1.40
2018-02-07T11:52:54.171Z,1.50
2018-02-07T11:55:20.469Z,1.50
2018-02-07T11:57:46.685Z,1.50
2018-02-07T12:00:13.253Z,1.30
2018-02-07T12:02:40.403Z,1.20
2018-02-07T12:05:06.589Z,1.20
2018-02-07T12:07:32.822Z,1.30
2018-02-07T12:09:59.749Z,1.30
2018-02-07T12:12:27.046Z,1.30
2018-02-07T12:14:55.078Z,1.40
2018-02-07T12:17:22.755Z,1.40
2018-02-07T12:19:49.597Z,1.30
2018-02-07T12:22:16.731Z,1.20
2018-02-07T12:24:43.705Z,1.10
2018-02-07T12:27:10.488Z,1.10
2018-02-07T12:29:36.691Z,1.00
2018-02-07T12:32:03.867Z,1.10
2018-02-07T12:34:30.087Z,1.00
2018-02-07T12:36:57.000Z,1.10
2018-02-07T12:39:23.904Z,1.20
2018-02-07T12:41:51.095Z,1.20
2018-02-07T12:44:17.380Z,1.20
2018-02-07T12:46:44.428Z,1.20
2018-02-07T12:49:10.877Z,1.20
2018-02-07T12:51:37.313Z,1.20
2018-02-07T12:54:05.253Z,1.10
2018-02-07T12:56:31.436Z,1.10
2018-02-07T12:58:58.252Z,1.10
2018-02-07T13:01:24.504Z,1.20
2018-02-07T13:03:50.707Z,1.20
2018-02-07T13:06:17.744Z,1.20
2018-02-07T13:08:45.270Z,1.00
2018-02-07T13:11:13.663Z,1.10
2018-02-07T13:13:40.634Z,1.10
2018-02-07T13:16:06.871Z,1.00
2018-02-07T13:18:33.577Z,1.20
2018-02-07T13:21:00.523Z,1.10
2018-02-07T13:23:28.370Z,1.10
2018-02-07T13:25:55.587Z,1.10
2018-02-07T13:28:21.799Z,1.10
2018-02-07T13:30:48.001Z,1.10
2018-02-07T13:33:14.793Z,1.10
2018-02-07T13:35:41.771Z,1.20
2018-02-07T13:38:07.976Z,1.20
2018-02-07T13:40:34.192Z,1.10
2018-02-07T13:43:00.441Z,1.10
2018-02-07T13:45:26.631Z,1.10
2018-02-07T13:47:52.832Z,1.10
2018-02-07T13:50:19.326Z,1.20
2018-02-07T13:52:46.847Z,1.10
2018-02-07T13:55:13.370Z,1.20
2018-02-07T13:57:39.595Z,1.20
2018-02-07T14:00:05.928Z,1.10
2018-02-07T14:02:32.562Z,1.20
2018-02-07T14:04:59.250Z,1.10
2018-02-07T14:07:26.820Z,1.10
2018-02-07T14:09:53.794Z,1.00
2018-02-07T14:12:21.149Z,1.00
2018-02-07T14:14:49.520Z,1.00
2018-02-07T14:17:16.609Z,1.00
2018-02-07T14:19:43.496Z,1.00
2018-02-07T14:22:10.230Z,1.10
2018-02-07T14:24:37.079Z,1.10
2018-02-07T14:27:03.306Z,1.10
2018-02-07T14:29:30.409Z,1.10
2018-02-07T14:31:58.005Z,1.10
2018-02-07T14:34:24.969Z,1.20
2018-02-07T14:36:51.935Z,1.30
2018-02-07T14:39:18.201Z,1.30
2018-02-07T14:41:45.019Z,1.30
2018-02-07T14:44:11.478Z,1.20
2018-02-07T14:46:38.583Z,1.30
2018-02-07T14:49:05.528Z,1.30
2018-02-07T14:51:32.483Z,1.30
2018-02-07T14:53:59.413Z,1.30
2018-02-07T14:56:26.567Z,1.40
2018-02-07T14:58:53.641Z,1.40
2018-02-07T15:01:20.083Z,1.40
2018-02-07T15:03:47.710Z,1.50
2018-02-07T15:06:14.809Z,1.50
2018-02-07T15:08:41.149Z,1.50
2018-02-07T15:11:08.249Z,1.50
2018-02-07T15:13:35.448Z,1.50
2018-02-07T15:16:02.943Z,1.50
2018-02-07T15:18:29.887Z,1.50
2018-02-07T15:20:56.106Z,1.50
2018-02-07T15:23:23.095Z,1.60
2018-02-07T15:25:49.375Z,1.50
2018-02-07T15:28:16.326Z,1.60
2018-02-07T15:30:43.373Z,1.60
2018-02-07T15:33:10.333Z,1.60
2018-02-07T15:35:36.561Z,1.60
2018-02-07T15:38:03.075Z,1.60
2018-02-07T15:40:30.040Z,1.60
2018-02-07T15:42:56.267Z,1.60
2018-02-07T15:45:23.316Z,1.60
2018-02-07T15:47:49.617Z,1.60
2018-02-07T15:50:15.875Z,1.60
2018-02-07T15:52:42.114Z,1.60
2018-02-07T15:55:08.792Z,1.60
2018-02-07T15:57:35.134Z,1.60
2018-02-07T16:00:01.552Z,1.60
2018-02-07T16:02:29.266Z,1.60
2018-02-07T16:04:55.534Z,1.60
2018-02-07T16:07:22.510Z,1.60
2018-02-07T16:09:48.711Z,1.60
2018-02-07T16:12:15.279Z,1.60
2018-02-07T16:14:42.259Z,1.60
2018-02-07T16:17:09.129Z,1.60
2018-02-07T16:19:35.918Z,1.50
2018-02-07T16:22:02.884Z,1.50
2018-02-07T16:24:29.697Z,1.50
2018-02-07T16:26:56.992Z,1.50
2018-02-07T16:29:24.555Z,1.50
2018-02-07T16:31:52.511Z,1.60
2018-02-07T16:34:19.509Z,1.60
2018-02-07T16:36:46.062Z,1.60
2018-02-07T16:39:13.608Z,1.60
2018-02-07T16:41:40.584Z,1.60
2018-02-07T16:44:07.131Z,1.60
2018-02-07T16:46:34.162Z,1.60
2018-02-07T16:49:00.394Z,1.60
2018-02-07T16:51:28.047Z,1.60
2018-02-07T16:53:55.009Z,1.50
2018-02-07T16:56:21.496Z,1.50
2018-02-07T16:58:48.765Z,1.50
2018-02-07T17:01:15.829Z,1.50
2018-02-07T17:03:42.579Z,1.50
2018-02-07T17:06:09.840Z,1.60
2018-02-07T17:08:36.219Z,1.60
2018-02-07T17:11:02.759Z,1.60
2018-02-07T17:13:30.244Z,1.60
2018-02-07T17:15:56.494Z,1.60
2018-02-07T17:18:23.275Z,1.60
2018-02-07T17:20:51.492Z,1.60
2018-02-07T17:23:17.877Z,1.70
2018-02-07T17:25:45.245Z,1.70
2018-02-07T17:28:12.041Z,1.60
2018-02-07T17:30:38.730Z,1.60
2018-02-07T17:33:05.009Z,1.60
2018-02-07T17:35:32.237Z,1.60
2018-02-07T17:37:58.842Z,1.60
2018-02-07T17:40:25.879Z,1.70
2018-02-07T17:42:52.500Z,1.70
2018-02-07T17:45:19.639Z,1.70
2018-02-07T17:47:45.822Z,1.70
2018-02-07T17:50:12.046Z,1.70
2018-02-07T17:52:39.524Z,1.60
2018-02-07T17:55:05.900Z,1.60
2018-02-07T17:57:32.748Z,1.60
2018-02-07T17:59:59.237Z,1.60
2018-02-07T18:02:25.460Z,1.60
2018-02-07T18:04:51.752Z,1.50
2018-02-07T18:07:18.276Z,1.60
2018-02-07T18:09:45.382Z,1.60
2018-02-07T18:12:11.958Z,1.60
2018-02-07T18:14:39.457Z,1.60
2018-02-07T18:17:06.731Z,1.60
2018-02-07T18:19:32.938Z,1.70
2018-02-07T18:22:00.245Z,1.70
2018-02-07T18:24:26.418Z,1.70
2018-02-07T18:26:53.286Z,1.60
2018-02-07T18:29:19.994Z,1.70
2018-02-07T18:31:46.272Z,1.60
2018-02-07T18:34:14.440Z,1.60
2018-02-07T18:36:40.628Z,1.60
2018-02-07T18:39:07.105Z,1.60
2018-02-07T18:41:34.105Z,1.70
2018-02-07T18:44:00.688Z,1.70
2018-02-07T18:46:28.420Z,1.70
2018-02-07T18:48:55.525Z,1.70
2018-02-07T18:51:21.846Z,1.70
2018-02-07T18:53:48.408Z,1.70
2018-02-07T18:56:16.337Z,1.60
2018-02-07T18:58:42.510Z,1.60
2018-02-07T19:01:09.477Z,1.70
2018-02-07T19:03:36.680Z,1.70
2018-02-07T19:06:03.247Z,1.60
2018-02-07T19:08:30.334Z,1.40
2018-02-07T19:10:56.582Z,1.40
2018-02-07T19:13:22.813Z,1.40
2018-02-07T19:15:49.665Z,1.40
2018-02-07T19:18:16.738Z,1.30
2018-02-07T19:20:44.599Z,1.30
2018-02-07T19:23:10.809Z,1.30
2018-02-07T19:25:38.031Z,1.20
2018-02-07T19:28:05.152Z,1.20
2018-02-07T19:30:31.965Z,1.20
2018-02-07T19:32:59.392Z,1.20
2018-02-07T19:35:26.342Z,1.20
2018-02-07T19:37:52.550Z,1.20
2018-02-07T19:40:19.492Z,1.30
2018-02-07T19:42:47.277Z,1.30
2018-02-07T19:45:13.479Z,1.30
2018-02-07T19:47:40.361Z,1.40
2018-02-07T19:50:08.354Z,1.30
2018-02-07T19:52:35.415Z,1.30
2018-02-07T19:55:02.594Z,1.30
2018-02-07T19:57:30.420Z,1.30
2018-02-07T19:59:57.646Z,1.40
2018-02-07T20:02:24.795Z,1.40
2018-02-07T20:04:51.943Z,1.40
2018-02-07T20:07:18.906Z,1.40
2018-02-07T20:09:45.606Z,1.40
2018-02-07T20:12:11.874Z,1.30
2018-02-07T20:14:38.150Z,1.40
2018-02-07T20:17:05.241Z,1.40
2018-02-07T20:19:32.300Z,1.40
2018-02-07T20:21:58.610Z,1.40
2018-02-07T20:24:25.558Z,1.30
2018-02-07T20:26:52.534Z,1.30
2018-02-07T20:29:18.771Z,1.30
2018-02-07T20:31:44.986Z,1.30
2018-02-07T20:34:11.753Z,1.30
2018-02-07T20:36:38.258Z,1.30
2018-02-07T20:39:05.580Z,1.30
2018-02-07T20:41:33.136Z,1.30
2018-02-07T20:44:00.010Z,1.30
2018-02-07T20:46:26.819Z,1.40
2018-02-07T20:48:53.171Z,1.30
2018-02-07T20:51:19.497Z,1.40
2018-02-07T20:53:46.758Z,1.30
2018-02-07T20:56:13.831Z,1.20
2018-02-07T20:58:40.654Z,1.30
2018-02-07T21:01:07.120Z,1.20
2018-02-07T21:03:33.310Z,1.30
2018-02-07T21:05:59.544Z,1.30
2018-02-07T21:08:26.277Z,1.20
2018-02-07T21:10:53.088Z,1.20
2018-02-07T21:13:21.354Z,1.20
2018-02-07T21:15:47.687Z,1.10
2018-02-07T21:18:14.976Z,1.10
2018-02-07T21:20:41.903Z,1.20
2018-02-07T21:23:08.871Z,1.20
2018-02-07T21:25:35.479Z,1.20
2018-02-07T21:28:03.194Z,1.20
2018-02-07T21:30:29.431Z,1.20
2018-02-07T21:32:55.753Z,1.30
2018-02-07T21:35:22.759Z,1.30
2018-02-07T21:37:49.391Z,1.30
2018-02-07T21:40:17.566Z,1.20
2018-02-07T21:42:44.928Z,1.30
2018-02-07T21:45:11.678Z,1.30
2018-02-07T21:47:37.891Z,1.30
2018-02-07T21:50:04.967Z,1.30
2018-02-07T21:52:31.586Z,1.30
2018-02-07T21:54:58.643Z,1.20
2018-02-07T21:57:24.888Z,1.30
2018-02-07T21:59:52.029Z,1.20
2018-02-07T22:02:18.920Z,1.20
2018-02-07T22:04:46.264Z,1.10
2018-02-07T22:07:13.029Z,1.20
2018-02-07T22:09:40.003Z,1.10
2018-02-07T22:12:06.885Z,1.20
2018-02-07T22:14:33.447Z,1.10
2018-02-07T22:17:00.867Z,1.00
2018-02-07T22:19:27.194Z,1.00
2018-02-07T22:21:53.659Z,0.90
2018-02-07T22:24:20.317Z,1.00
2018-02-07T22:26:46.574Z,1.00
2018-02-07T22:29:12.918Z,1.10
2018-02-07T22:31:40.306Z,1.10
2018-02-07T22:34:06.661Z,1.20
2018-02-07T22:36:32.943Z,1.20
2018-02-07T22:38:59.725Z,1.30
2018-02-07T22:41:26.032Z,1.30
2018-02-07T22:43:52.341Z,1.30
2018-02-07T22:46:19.224Z,1.30
2018-02-07T22:48:46.281Z,1.30
2018-02-07T22:51:13.465Z,1.40
2018-02-07T22:53:40.326Z,1.40
2018-02-07T22:56:07.888Z,1.30
2018-02-07T22:58:34.905Z,1.40
2018-02-07T23:01:01.114Z,1.40
2018-02-07T23:03:28.543Z,1.40
2018-02-07T23:05:57.801Z,1.40
2018-02-07T23:08:24.218Z,1.40
2018-02-07T23:10:50.423Z,1.50
2018-02-07T23:13:17.218Z,1.40
2018-02-07T23:15:43.705Z,1.50
2018-02-07T23:18:11.039Z,1.40
2018-02-07T23:20:38.687Z,1.40
2018-02-07T23:23:04.949Z,1.40
2018-02-07T23:25:32.261Z,1.50
2018-02-07T23:27:59.067Z,1.50
2018-02-07T23:30:25.351Z,1.50
2018-02-07T23:32:53.002Z,1.50
2018-02-07T23:35:20.248Z,1.50
2018-02-07T23:37:46.866Z,1.50
2018-02-07T23:40:13.233Z,1.50
2018-02-07T23:42:40.233Z,1.50
2018-02-07T23:45:06.521Z,1.50
2018-02-07T23:47:32.749Z,1.50
2018-02-07T23:49:58.986Z,1.50
2018-02-07T23:52:25.712Z,1.40
2018-02-07T23:54:52.746Z,1.50
2018-02-07T23:57:20.365Z,1.50
2018-02-07T23:59:46.741Z,1.50
